sensor_id;sensor_type;location;lat;lon;timestamp;pressure;altitude;pressure_sealevel;temperature;humidity
15477;BME280;7840;42.702;23.296;2023-12-20T00:02:20;95438.47;;;0.57;100.00
15477;BME280;7840;42.702;23.296;2023-12-20T00:04:49;95440.72;;;0.60;100.00
15477;BME280;7840;42.702;23.296;2023-12-20T00:07:17;95440.09;;;0.58;100.00
15477;BME280;7840;42.702;23.296;2023-12-20T00:09:44;95433.81;;;0.67;100.00
15477;BME280;7840;42.702;23.296;2023-12-20T00:12:12;95425.59;;;0.78;100.00
15477;BME280;7840;42.702;23.296;2023-12-20T00:14:39;95430.78;;;0.78;100.00
15477;BME280;7840;42.702;23.296;2023-12-20T00:17:07;95417.13;;;0.76;100.00
15477;BME280;7840;42.702;23.296;2023-12-20T00:19:35;95420.38;;;0.78;100.00
15477;BME280;7840;42.702;23.296;2023-12-20T00:22:04;95416.06;;;0.85;100.00
15477;BME280;7840;42.702;23.296;2023-12-20T00:24:32;95412.25;;;0.73;100.00
15477;BME280;7840;42.702;23.296;2023-12-20T00:26:59;95409.09;;;0.63;100.00
15477;BME280;7840;42.702;23.296;2023-12-20T00:29:27;95408.75;;;0.66;100.00
15477;BME280;7840;42.702;23.296;2023-12-20T00:31:54;95401.84;;;0.73;100.00
15477;BME280;7840;42.702;23.296;2023-12-20T00:34:22;95404.81;;;0.70;100.00
15477;BME280;7840;42.702;23.296;2023-12-20T00:36:50;95399.84;;;0.75;100.00
15477;BME280;7840;42.702;23.296;2023-12-20T00:39:18;95402.19;;;0.70;100.00
15477;BME280;7840;42.702;23.296;2023-12-20T00:41:46;95396.28;;;0.76;100.00
15477;BME280;7840;42.702;23.296;2023-12-20T00:44:13;95395.91;;;0.79;100.00
15477;BME280;7840;42.702;23.296;2023-12-20T00:46:41;95387.09;;;0.80;100.00
15477;BME280;7840;42.702;23.296;2023-12-20T00:49:09;95382.06;;;0.64;100.00
15477;BME280;7840;42.702;23.296;2023-12-20T00:51:39;95384.47;;;0.65;100.00
15477;BME280;7840;42.702;23.296;2023-12-20T00:54:07;95384.16;;;0.45;100.00
15477;BME280;7840;42.702;23.296;2023-12-20T00:56:36;95385.22;;;0.36;100.00
15477;BME280;7840;42.702;23.296;2023-12-20T00:59:04;95381.28;;;0.17;100.00
15477;BME280;7840;42.702;23.296;2023-12-20T01:01:37;95384.53;;;0.19;100.00
15477;BME280;7840;42.702;23.296;2023-12-20T01:04:04;95380.22;;;0.26;100.00
15477;BME280;7840;42.702;23.296;2023-12-20T01:06:32;95372.28;;;0.28;100.00
15477;BME280;7840;42.702;23.296;2023-12-20T01:08:59;95371.59;;;0.26;100.00
15477;BME280;7840;42.702;23.296;2023-12-20T01:11:27;95369.81;;;0.26;100.00
15477;BME280;7840;42.702;23.296;2023-12-20T01:13:56;95365.88;;;0.31;100.00
15477;BME280;7840;42.702;23.296;2023-12-20T01:16:24;95357.19;;;0.38;100.00
15477;BME280;7840;42.702;23.296;2023-12-20T01:18:51;95355.06;;;0.42;100.00
15477;BME280;7840;42.702;23.296;2023-12-20T01:21:19;95366.09;;;0.44;100.00
15477;BME280;7840;42.702;23.296;2023-12-20T01:23:46;95351.97;;;0.38;100.00
15477;BME280;7840;42.702;23.296;2023-12-20T01:26:15;95354.88;;;0.43;100.00
15477;BME280;7840;42.702;23.296;2023-12-20T01:28:43;95340.81;;;0.30;100.00
15477;BME280;7840;42.702;23.296;2023-12-20T01:31:12;95345.84;;;0.31;100.00
15477;BME280;7840;42.702;23.296;2023-12-20T01:33:39;95337.75;;;0.26;100.00
15477;BME280;7840;42.702;23.296;2023-12-20T01:36:07;95336.50;;;0.22;100.00
15477;BME280;7840;42.702;23.296;2023-12-20T01:38:35;95331.91;;;0.24;100.00
15477;BME280;7840;42.702;23.296;2023-12-20T01:41:02;95343.66;;;0.20;100.00
15477;BME280;7840;42.702;23.296;2023-12-20T01:43:31;95327.69;;;0.23;100.00
15477;BME280;7840;42.702;23.296;2023-12-20T01:45:58;95324.59;;;0.05;100.00
15477;BME280;7840;42.702;23.296;2023-12-20T01:48:28;95312.19;;;0.07;100.00
15477;BME280;7840;42.702;23.296;2023-12-20T01:50:58;95316.03;;;-0.04;100.00
15477;BME280;7840;42.702;23.296;2023-12-20T01:53:28;95311.28;;;-0.23;100.00
15477;BME280;7840;42.702;23.296;2023-12-20T01:55:57;95313.94;;;-0.09;100.00
15477;BME280;7840;42.702;23.296;2023-12-20T01:58:25;95313.66;;;-0.14;100.00
15477;BME280;7840;42.702;23.296;2023-12-20T02:00:53;95308.22;;;-0.04;100.00
15477;BME280;7840;42.702;23.296;2023-12-20T02:03:21;95310.13;;;-0.21;100.00
15477;BME280;7840;42.702;23.296;2023-12-20T02:05:51;95301.59;;;-0.07;100.00
15477;BME280;7840;42.702;23.296;2023-12-20T02:08:18;95293.91;;;-0.08;100.00
15477;BME280;7840;42.702;23.296;2023-12-20T02:10:46;95297.50;;;-0.09;100.00
15477;BME280;7840;42.702;23.296;2023-12-20T02:13:14;95293.81;;;-0.15;100.00
15477;BME280;7840;42.702;23.296;2023-12-20T02:15:41;95297.28;;;-0.68;100.00
15477;BME280;7840;42.702;23.296;2023-12-20T02:18:10;95279.81;;;-0.60;100.00
15477;BME280;7840;42.702;23.296;2023-12-20T02:20:41;95294.22;;;-1.03;100.00
15477;BME280;7840;42.702;23.296;2023-12-20T02:23:10;95282.56;;;-0.84;100.00
15477;BME280;7840;42.702;23.296;2023-12-20T02:25:36;95281.06;;;-0.78;100.00
15477;BME280;7840;42.702;23.296;2023-12-20T02:28:05;95289.81;;;-1.02;100.00
15477;BME280;7840;42.702;23.296;2023-12-20T02:30:33;95272.66;;;-1.20;100.00
15477;BME280;7840;42.702;23.296;2023-12-20T02:33:01;95264.53;;;-1.25;100.00
15477;BME280;7840;42.702;23.296;2023-12-20T02:35:31;95265.91;;;-1.37;100.00
15477;BME280;7840;42.702;23.296;2023-12-20T02:37:58;95261.03;;;-1.40;100.00
15477;BME280;7840;42.702;23.296;2023-12-20T02:40:27;95259.38;;;-1.33;100.00
15477;BME280;7840;42.702;23.296;2023-12-20T02:42:55;95252.34;;;-1.16;100.00
15477;BME280;7840;42.702;23.296;2023-12-20T02:45:22;95251.63;;;-1.02;100.00
15477;BME280;7840;42.702;23.296;2023-12-20T02:47:50;95242.09;;;-1.09;100.00
15477;BME280;7840;42.702;23.296;2023-12-20T02:50:17;95243.63;;;-0.69;100.00
15477;BME280;7840;42.702;23.296;2023-12-20T02:52:45;95244.34;;;-0.75;100.00
15477;BME280;7840;42.702;23.296;2023-12-20T02:55:13;95243.53;;;-0.53;100.00
15477;BME280;7840;42.702;23.296;2023-12-20T02:57:42;95242.94;;;-0.40;100.00
15477;BME280;7840;42.702;23.296;2023-12-20T03:00:10;95249.69;;;-0.31;100.00
15477;BME280;7840;42.702;23.296;2023-12-20T03:02:38;95254.03;;;-0.23;100.00
15477;BME280;7840;42.702;23.296;2023-12-20T03:05:06;95246.94;;;-0.15;100.00
15477;BME280;7840;42.702;23.296;2023-12-20T03:07:34;95243.56;;;-0.01;100.00
15477;BME280;7840;42.702;23.296;2023-12-20T03:10:04;95244.00;;;-0.12;100.00
15477;BME280;7840;42.702;23.296;2023-12-20T03:12:32;95244.25;;;-0.44;100.00
15477;BME280;7840;42.702;23.296;2023-12-20T03:15:01;95241.59;;;-0.36;100.00
15477;BME280;7840;42.702;23.296;2023-12-20T03:17:29;95242.34;;;-0.50;100.00
15477;BME280;7840;42.702;23.296;2023-12-20T03:19:56;95235.69;;;-0.76;100.00
15477;BME280;7840;42.702;23.296;2023-12-20T03:22:24;95241.88;;;-0.77;100.00
15477;BME280;7840;42.702;23.296;2023-12-20T03:24:51;95233.69;;;-0.66;100.00
15477;BME280;7840;42.702;23.296;2023-12-20T03:27:19;95235.19;;;-0.71;100.00
15477;BME280;7840;42.702;23.296;2023-12-20T03:29:46;95236.00;;;-0.48;100.00
15477;BME280;7840;42.702;23.296;2023-12-20T03:32:15;95230.69;;;-0.32;100.00
15477;BME280;7840;42.702;23.296;2023-12-20T03:34:43;95231.47;;;-0.31;100.00
15477;BME280;7840;42.702;23.296;2023-12-20T03:37:11;95218.16;;;-0.13;100.00
15477;BME280;7840;42.702;23.296;2023-12-20T03:39:38;95232.41;;;-0.24;100.00
15477;BME280;7840;42.702;23.296;2023-12-20T03:42:06;95224.19;;;-0.13;100.00
15477;BME280;7840;42.702;23.296;2023-12-20T03:44:33;95220.13;;;-0.15;100.00
15477;BME280;7840;42.702;23.296;2023-12-20T03:47:01;95217.09;;;-0.04;100.00
15477;BME280;7840;42.702;23.296;2023-12-20T03:49:30;95227.13;;;-0.16;100.00
15477;BME280;7840;42.702;23.296;2023-12-20T03:51:57;95222.91;;;-0.17;100.00
15477;BME280;7840;42.702;23.296;2023-12-20T03:54:25;95225.56;;;-0.25;100.00
15477;BME280;7840;42.702;23.296;2023-12-20T03:56:55;95211.72;;;-0.40;100.00
15477;BME280;7840;42.702;23.296;2023-12-20T03:59:23;95224.66;;;-0.32;100.00
15477;BME280;7840;42.702;23.296;2023-12-20T04:01:50;95222.25;;;-0.34;100.00
15477;BME280;7840;42.702;23.296;2023-12-20T04:04:18;95212.84;;;-0.20;100.00
15477;BME280;7840;42.702;23.296;2023-12-20T04:06:47;95213.66;;;-0.42;100.00
15477;BME280;7840;42.702;23.296;2023-12-20T04:09:15;95207.91;;;-0.52;100.00
15477;BME280;7840;42.702;23.296;2023-12-20T04:11:42;95197.50;;;-0.52;100.00
15477;BME280;7840;42.702;23.296;2023-12-20T04:14:10;95209.81;;;-0.46;100.00
15477;BME280;7840;42.702;23.296;2023-12-20T04:16:38;95192.16;;;-0.36;100.00
15477;BME280;7840;42.702;23.296;2023-12-20T04:19:06;95193.78;;;-0.35;100.00
15477;BME280;7840;42.702;23.296;2023-12-20T04:21:33;95186.81;;;-0.20;100.00
15477;BME280;7840;42.702;23.296;2023-12-20T04:24:02;95188.06;;;-0.16;100.00
15477;BME280;7840;42.702;23.296;2023-12-20T04:26:30;95187.38;;;-0.10;100.00
15477;BME280;7840;42.702;23.296;2023-12-20T04:28:57;95186.66;;;-0.04;100.00
15477;BME280;7840;42.702;23.296;2023-12-20T04:31:25;95191.28;;;-0.14;100.00
15477;BME280;7840;42.702;23.296;2023-12-20T04:33:53;95182.06;;;-0.16;100.00
15477;BME280;7840;42.702;23.296;2023-12-20T04:36:20;95182.28;;;-0.41;100.00
15477;BME280;7840;42.702;23.296;2023-12-20T04:38:48;95183.09;;;-0.40;100.00
15477;BME280;7840;42.702;23.296;2023-12-20T04:41:17;95179.34;;;-0.23;100.00
15477;BME280;7840;42.702;23.296;2023-12-20T04:43:45;95184.78;;;-0.47;100.00
15477;BME280;7840;42.702;23.296;2023-12-20T04:46:12;95181.19;;;-0.46;100.00
15477;BME280;7840;42.702;23.296;2023-12-20T04:48:40;95176.53;;;-0.36;100.00
15477;BME280;7840;42.702;23.296;2023-12-20T04:51:07;95169.34;;;-0.72;100.00
15477;BME280;7840;42.702;23.296;2023-12-20T04:53:35;95171.22;;;-0.43;100.00
15477;BME280;7840;42.702;23.296;2023-12-20T04:56:03;95170.09;;;-0.40;100.00
15477;BME280;7840;42.702;23.296;2023-12-20T04:58:32;95170.13;;;-0.86;100.00
15477;BME280;7840;42.702;23.296;2023-12-20T05:00:59;95172.47;;;-1.22;100.00
15477;BME280;7840;42.702;23.296;2023-12-20T05:03:27;95171.41;;;-1.36;100.00
15477;BME280;7840;42.702;23.296;2023-12-20T05:05:55;95170.94;;;-1.08;100.00
15477;BME280;7840;42.702;23.296;2023-12-20T05:08:22;95170.38;;;-1.27;100.00
15477;BME280;7840;42.702;23.296;2023-12-20T05:10:51;95155.50;;;-1.41;100.00
15477;BME280;7840;42.702;23.296;2023-12-20T05:13:19;95155.91;;;-1.60;100.00
15477;BME280;7840;42.702;23.296;2023-12-20T05:15:48;95156.41;;;-1.26;100.00
15477;BME280;7840;42.702;23.296;2023-12-20T05:18:15;95160.03;;;-1.35;100.00
15477;BME280;7840;42.702;23.296;2023-12-20T05:20:43;95155.44;;;-1.02;100.00
15477;BME280;7840;42.702;23.296;2023-12-20T05:23:12;95151.22;;;-0.80;100.00
15477;BME280;7840;42.702;23.296;2023-12-20T05:25:40;95152.06;;;-1.11;100.00
15477;BME280;7840;42.702;23.296;2023-12-20T05:28:08;95147.94;;;-1.51;100.00
15477;BME280;7840;42.702;23.296;2023-12-20T05:30:35;95141.72;;;-1.19;100.00
15477;BME280;7840;42.702;23.296;2023-12-20T05:33:04;95141.53;;;-1.40;100.00
15477;BME280;7840;42.702;23.296;2023-12-20T05:35:32;95141.69;;;-1.73;100.00
15477;BME280;7840;42.702;23.296;2023-12-20T05:38:00;95138.34;;;-1.50;100.00
15477;BME280;7840;42.702;23.296;2023-12-20T05:40:27;95140.91;;;-1.42;100.00
15477;BME280;7840;42.702;23.296;2023-12-20T05:42:55;95136.00;;;-1.68;100.00
15477;BME280;7840;42.702;23.296;2023-12-20T05:45:22;95133.44;;;-1.45;100.00
15477;BME280;7840;42.702;23.296;2023-12-20T05:47:50;95139.47;;;-1.84;100.00
15477;BME280;7840;42.702;23.296;2023-12-20T05:50:19;95135.66;;;-2.04;100.00
15477;BME280;7840;42.702;23.296;2023-12-20T05:52:47;95131.75;;;-1.61;100.00
15477;BME280;7840;42.702;23.296;2023-12-20T05:55:15;95125.88;;;-1.55;100.00
15477;BME280;7840;42.702;23.296;2023-12-20T05:57:42;95132.19;;;-1.49;100.00
15477;BME280;7840;42.702;23.296;2023-12-20T06:00:11;95124.53;;;-1.82;100.00
15477;BME280;7840;42.702;23.296;2023-12-20T06:02:39;95121.13;;;-1.43;100.00
15477;BME280;7840;42.702;23.296;2023-12-20T06:05:07;95114.97;;;-1.50;100.00
15477;BME280;7840;42.702;23.296;2023-12-20T06:07:36;95121.34;;;-1.30;100.00
15477;BME280;7840;42.702;23.296;2023-12-20T06:10:04;95111.41;;;-1.26;100.00
15477;BME280;7840;42.702;23.296;2023-12-20T06:12:32;95116.97;;;-1.60;100.00
15477;BME280;7840;42.702;23.296;2023-12-20T06:15:02;95118.63;;;-1.68;100.00
15477;BME280;7840;42.702;23.296;2023-12-20T06:17:30;95114.88;;;-1.96;100.00
15477;BME280;7840;42.702;23.296;2023-12-20T06:20:00;95125.38;;;-1.50;100.00
15477;BME280;7840;42.702;23.296;2023-12-20T06:22:29;95130.47;;;-1.34;100.00
15477;BME280;7840;42.702;23.296;2023-12-20T06:24:58;95122.16;;;-1.06;100.00
15477;BME280;7840;42.702;23.296;2023-12-20T06:27:25;95119.44;;;-0.90;100.00
15477;BME280;7840;42.702;23.296;2023-12-20T06:29:53;95118.56;;;-0.83;100.00
15477;BME280;7840;42.702;23.296;2023-12-20T06:32:20;95117.28;;;-0.64;100.00
15477;BME280;7840;42.702;23.296;2023-12-20T06:34:49;95129.44;;;-1.25;100.00
15477;BME280;7840;42.702;23.296;2023-12-20T06:37:17;95122.47;;;-1.55;100.00
15477;BME280;7840;42.702;23.296;2023-12-20T06:39:45;95119.31;;;-1.74;100.00
15477;BME280;7840;42.702;23.296;2023-12-20T06:42:14;95117.41;;;-1.26;100.00
15477;BME280;7840;42.702;23.296;2023-12-20T06:44:41;95111.69;;;-1.44;100.00
15477;BME280;7840;42.702;23.296;2023-12-20T06:47:09;95124.84;;;-1.77;100.00
15477;BME280;7840;42.702;23.296;2023-12-20T06:49:37;95116.06;;;-1.76;100.00
15477;BME280;7840;42.702;23.296;2023-12-20T06:52:04;95110.47;;;-1.56;100.00
15477;BME280;7840;42.702;23.296;2023-12-20T06:54:32;95105.22;;;-1.25;100.00
15477;BME280;7840;42.702;23.296;2023-12-20T06:57:01;95096.94;;;-0.83;100.00
15477;BME280;7840;42.702;23.296;2023-12-20T06:59:40;95093.25;;;-0.51;100.00
15477;BME280;7840;42.702;23.296;2023-12-20T07:02:09;95085.03;;;-0.25;100.00
15477;BME280;7840;42.702;23.296;2023-12-20T07:04:39;95088.00;;;-0.13;100.00
15477;BME280;7840;42.702;23.296;2023-12-20T07:07:07;95079.19;;;0.03;100.00
15477;BME280;7840;42.702;23.296;2023-12-20T07:09:35;95086.53;;;-0.01;100.00
15477;BME280;7840;42.702;23.296;2023-12-20T07:12:03;95090.59;;;-0.13;100.00
15477;BME280;7840;42.702;23.296;2023-12-20T07:14:31;95086.72;;;-0.32;100.00
15477;BME280;7840;42.702;23.296;2023-12-20T07:17:00;95090.34;;;-0.18;100.00
15477;BME280;7840;42.702;23.296;2023-12-20T07:19:27;95086.72;;;-0.17;100.00
15477;BME280;7840;42.702;23.296;2023-12-20T07:21:55;95085.28;;;-0.35;100.00
15477;BME280;7840;42.702;23.296;2023-12-20T07:24:23;95085.38;;;-0.28;100.00
15477;BME280;7840;42.702;23.296;2023-12-20T07:26:50;95087.16;;;-0.14;100.00
15477;BME280;7840;42.702;23.296;2023-12-20T07:29:18;95068.66;;;0.11;100.00
15477;BME280;7840;42.702;23.296;2023-12-20T07:31:45;95079.59;;;-0.68;100.00
15477;BME280;7840;42.702;23.296;2023-12-20T07:34:14;95077.09;;;-0.99;100.00
15477;BME280;7840;42.702;23.296;2023-12-20T07:36:42;95079.94;;;-0.71;100.00
15477;BME280;7840;42.702;23.296;2023-12-20T07:39:09;95081.13;;;-0.96;100.00
15477;BME280;7840;42.702;23.296;2023-12-20T07:41:37;95078.50;;;-0.88;100.00
15477;BME280;7840;42.702;23.296;2023-12-20T07:44:06;95077.63;;;-0.66;100.00
15477;BME280;7840;42.702;23.296;2023-12-20T07:46:34;95075.44;;;-0.77;100.00
15477;BME280;7840;42.702;23.296;2023-12-20T07:49:01;95073.50;;;-0.75;100.00
15477;BME280;7840;42.702;23.296;2023-12-20T07:51:30;95067.06;;;-0.49;100.00
15477;BME280;7840;42.702;23.296;2023-12-20T07:53:58;95066.63;;;-0.38;100.00
15477;BME280;7840;42.702;23.296;2023-12-20T07:56:26;95058.44;;;-0.35;100.00
15477;BME280;7840;42.702;23.296;2023-12-20T07:58:53;95070.13;;;-0.31;100.00
15477;BME280;7840;42.702;23.296;2023-12-20T08:01:21;95070.75;;;-0.14;100.00
15477;BME280;7840;42.702;23.296;2023-12-20T08:03:49;95064.22;;;-0.25;100.00
15477;BME280;7840;42.702;23.296;2023-12-20T08:06:17;95061.69;;;-0.04;100.00
15477;BME280;7840;42.702;23.296;2023-12-20T08:08:46;95054.91;;;0.17;100.00
15477;BME280;7840;42.702;23.296;2023-12-20T08:11:13;95061.56;;;0.05;100.00
15477;BME280;7840;42.702;23.296;2023-12-20T08:13:41;95061.69;;;-0.04;100.00
15477;BME280;7840;42.702;23.296;2023-12-20T08:16:08;95059.81;;;-0.24;100.00
15477;BME280;7840;42.702;23.296;2023-12-20T08:18:37;95049.03;;;0.08;100.00
15477;BME280;7840;42.702;23.296;2023-12-20T08:21:05;95036.19;;;0.43;100.00
15477;BME280;7840;42.702;23.296;2023-12-20T08:23:34;95040.66;;;0.70;100.00
15477;BME280;7840;42.702;23.296;2023-12-20T08:26:05;95051.44;;;0.10;100.00
15477;BME280;7840;42.702;23.296;2023-12-20T08:28:33;95038.72;;;0.58;100.00
15477;BME280;7840;42.702;23.296;2023-12-20T08:31:00;95036.81;;;0.66;100.00
15477;BME280;7840;42.702;23.296;2023-12-20T08:33:28;95039.22;;;0.68;100.00
15477;BME280;7840;42.702;23.296;2023-12-20T08:35:56;95035.00;;;0.67;100.00
15477;BME280;7840;42.702;23.296;2023-12-20T08:38:24;95025.44;;;0.95;100.00
15477;BME280;7840;42.702;23.296;2023-12-20T08:40:51;95024.63;;;1.23;100.00
15477;BME280;7840;42.702;23.296;2023-12-20T08:43:20;95028.34;;;1.35;100.00
15477;BME280;7840;42.702;23.296;2023-12-20T08:45:48;95023.69;;;0.81;100.00
15477;BME280;7840;42.702;23.296;2023-12-20T08:48:15;95015.44;;;0.99;100.00
15477;BME280;7840;42.702;23.296;2023-12-20T08:50:44;95011.41;;;0.96;100.00
15477;BME280;7840;42.702;23.296;2023-12-20T08:53:12;95014.28;;;0.59;100.00
15477;BME280;7840;42.702;23.296;2023-12-20T08:55:39;95015.19;;;1.22;100.00
15477;BME280;7840;42.702;23.296;2023-12-20T08:58:07;95003.03;;;1.63;100.00
15477;BME280;7840;42.702;23.296;2023-12-20T09:00:36;95010.72;;;1.78;100.00
15477;BME280;7840;42.702;23.296;2023-12-20T09:03:05;94997.81;;;1.63;100.00
15477;BME280;7840;42.702;23.296;2023-12-20T09:05:32;94988.75;;;1.25;100.00
15477;BME280;7840;42.702;23.296;2023-12-20T09:08:00;94981.34;;;1.00;100.00
15477;BME280;7840;42.702;23.296;2023-12-20T09:10:28;94973.38;;;1.08;100.00
15477;BME280;7840;42.702;23.296;2023-12-20T09:12:55;94972.03;;;1.47;100.00
15477;BME280;7840;42.702;23.296;2023-12-20T09:15:25;94960.06;;;1.66;100.00
15477;BME280;7840;42.702;23.296;2023-12-20T09:17:54;94950.69;;;1.85;100.00
15477;BME280;7840;42.702;23.296;2023-12-20T09:20:21;94949.53;;;1.87;100.00
15477;BME280;7840;42.702;23.296;2023-12-20T09:22:49;94940.50;;;1.97;100.00
15477;BME280;7840;42.702;23.296;2023-12-20T09:25:17;94929.72;;;2.33;100.00
15477;BME280;7840;42.702;23.296;2023-12-20T09:27:44;94928.91;;;2.26;100.00
15477;BME280;7840;42.702;23.296;2023-12-20T09:30:13;94918.28;;;1.59;100.00
15477;BME280;7840;42.702;23.296;2023-12-20T09:32:40;94921.84;;;1.45;100.00
15477;BME280;7840;42.702;23.296;2023-12-20T09:35:10;94916.72;;;1.72;100.00
15477;BME280;7840;42.702;23.296;2023-12-20T09:37:37;94913.88;;;1.60;100.00
15477;BME280;7840;42.702;23.296;2023-12-20T09:40:09;94903.63;;;1.58;100.00
15477;BME280;7840;42.702;23.296;2023-12-20T09:42:43;94889.09;;;2.10;100.00
15477;BME280;7840;42.702;23.296;2023-12-20T09:45:16;94895.13;;;2.11;100.00
15477;BME280;7840;42.702;23.296;2023-12-20T09:47:47;94887.91;;;2.06;100.00
15477;BME280;7840;42.702;23.296;2023-12-20T09:50:18;94884.63;;;1.91;100.00
15477;BME280;7840;42.702;23.296;2023-12-20T09:52:51;94884.94;;;1.61;100.00
15477;BME280;7840;42.702;23.296;2023-12-20T09:55:19;94875.91;;;1.64;100.00
15477;BME280;7840;42.702;23.296;2023-12-20T09:57:47;94880.13;;;1.58;100.00
15477;BME280;7840;42.702;23.296;2023-12-20T10:00:17;94874.44;;;2.16;100.00
15477;BME280;7840;42.702;23.296;2023-12-20T10:02:50;94868.13;;;1.84;100.00
15477;BME280;7840;42.702;23.296;2023-12-20T10:05:26;94872.63;;;2.23;100.00
15477;BME280;7840;42.702;23.296;2023-12-20T10:07:53;94866.59;;;2.23;100.00
15477;BME280;7840;42.702;23.296;2023-12-20T10:10:21;94862.41;;;2.55;100.00
15477;BME280;7840;42.702;23.296;2023-12-20T10:13:03;94851.69;;;2.96;100.00
15477;BME280;7840;42.702;23.296;2023-12-20T10:15:37;94856.97;;;2.36;100.00
15477;BME280;7840;42.702;23.296;2023-12-20T10:18:05;94850.13;;;2.68;100.00
15477;BME280;7840;42.702;23.296;2023-12-20T10:20:34;94846.91;;;2.53;100.00
15477;BME280;7840;42.702;23.296;2023-12-20T10:23:02;94833.72;;;3.13;100.00
15477;BME280;7840;42.702;23.296;2023-12-20T10:25:29;94833.59;;;3.52;100.00
15477;BME280;7840;42.702;23.296;2023-12-20T10:28:11;94820.72;;;3.82;100.00
15477;BME280;7840;42.702;23.296;2023-12-20T10:30:40;94820.66;;;3.96;100.00
15477;BME280;7840;42.702;23.296;2023-12-20T10:33:08;94822.91;;;4.17;100.00
15477;BME280;7840;42.702;23.296;2023-12-20T10:35:38;94815.19;;;4.54;100.00
15477;BME280;7840;42.702;23.296;2023-12-20T10:38:06;94817.13;;;4.83;100.00
15477;BME280;7840;42.702;23.296;2023-12-20T10:40:36;94804.91;;;4.96;100.00
15477;BME280;7840;42.702;23.296;2023-12-20T10:43:04;94810.09;;;5.02;100.00
15477;BME280;7840;42.702;23.296;2023-12-20T10:45:32;94795.88;;;5.10;100.00
15477;BME280;7840;42.702;23.296;2023-12-20T10:47:59;94800.06;;;4.92;100.00
15477;BME280;7840;42.702;23.296;2023-12-20T10:50:32;94787.69;;;4.81;100.00
15477;BME280;7840;42.702;23.296;2023-12-20T10:53:01;94787.84;;;5.05;100.00
15477;BME280;7840;42.702;23.296;2023-12-20T10:55:29;94793.03;;;5.11;100.00
15477;BME280;7840;42.702;23.296;2023-12-20T10:58:02;94788.16;;;5.15;100.00
15477;BME280;7840;42.702;23.296;2023-12-20T11:00:32;94778.53;;;5.09;100.00
15477;BME280;7840;42.702;23.296;2023-12-20T11:05:38;94768.28;;;5.19;100.00
15477;BME280;7840;42.702;23.296;2023-12-20T11:08:13;94767.19;;;5.27;100.00
15477;BME280;7840;42.702;23.296;2023-12-20T11:10:48;94756.19;;;5.18;100.00
15477;BME280;7840;42.702;23.296;2023-12-20T11:13:22;94752.41;;;4.96;100.00
15477;BME280;7840;42.702;23.296;2023-12-20T11:15:50;94753.06;;;4.29;100.00
15477;BME280;7840;42.702;23.296;2023-12-20T11:18:18;94746.69;;;4.44;100.00
15477;BME280;7840;42.702;23.296;2023-12-20T11:20:46;94753.44;;;4.33;100.00
15477;BME280;7840;42.702;23.296;2023-12-20T11:23:15;94738.34;;;4.53;100.00
15477;BME280;7840;42.702;23.296;2023-12-20T11:25:51;94722.78;;;4.33;100.00
15477;BME280;7840;42.702;23.296;2023-12-20T11:28:22;94731.47;;;4.09;100.00
15477;BME280;7840;42.702;23.296;2023-12-20T11:30:51;94715.78;;;4.02;100.00
15477;BME280;7840;42.702;23.296;2023-12-20T11:33:22;94717.03;;;4.00;100.00
15477;BME280;7840;42.702;23.296;2023-12-20T11:35:50;94705.00;;;3.92;100.00
15477;BME280;7840;42.702;23.296;2023-12-20T11:38:21;94701.31;;;4.00;100.00
15477;BME280;7840;42.702;23.296;2023-12-20T11:40:50;94692.03;;;3.97;100.00
15477;BME280;7840;42.702;23.296;2023-12-20T11:43:30;94686.31;;;4.07;100.00
15477;BME280;7840;42.702;23.296;2023-12-20T11:46:03;94682.50;;;4.28;100.00
15477;BME280;7840;42.702;23.296;2023-12-20T11:48:32;94682.31;;;4.48;100.00
15477;BME280;7840;42.702;23.296;2023-12-20T11:51:00;94678.00;;;4.72;100.00
15477;BME280;7840;42.702;23.296;2023-12-20T11:53:31;94663.19;;;4.96;100.00
15477;BME280;7840;42.702;23.296;2023-12-20T11:56:00;94656.41;;;5.18;100.00
15477;BME280;7840;42.702;23.296;2023-12-20T11:58:29;94642.13;;;5.56;100.00
15477;BME280;7840;42.702;23.296;2023-12-20T12:00:57;94644.66;;;5.62;100.00
15477;BME280;7840;42.702;23.296;2023-12-20T12:03:24;94643.59;;;5.40;100.00
15477;BME280;7840;42.702;23.296;2023-12-20T12:05:52;94639.00;;;5.77;100.00
15477;BME280;7840;42.702;23.296;2023-12-20T12:08:20;94638.13;;;6.07;100.00
15477;BME280;7840;42.702;23.296;2023-12-20T12:10:49;94623.09;;;6.54;100.00
15477;BME280;7840;42.702;23.296;2023-12-20T12:13:17;94617.63;;;6.84;100.00
15477;BME280;7840;42.702;23.296;2023-12-20T12:15:44;94624.69;;;6.95;100.00
15477;BME280;7840;42.702;23.296;2023-12-20T12:18:16;94618.75;;;6.88;100.00
15477;BME280;7840;42.702;23.296;2023-12-20T12:20:47;94609.25;;;7.16;100.00
15477;BME280;7840;42.702;23.296;2023-12-20T12:23:15;94604.00;;;7.16;100.00
15477;BME280;7840;42.702;23.296;2023-12-20T12:25:51;94607.53;;;7.38;100.00
15477;BME280;7840;42.702;23.296;2023-12-20T12:28:19;94612.91;;;7.43;100.00
15477;BME280;7840;42.702;23.296;2023-12-20T12:30:57;94609.38;;;7.37;100.00
15477;BME280;7840;42.702;23.296;2023-12-20T12:33:25;94611.94;;;7.04;100.00
15477;BME280;7840;42.702;23.296;2023-12-20T12:35:53;94601.91;;;7.18;100.00
15477;BME280;7840;42.702;23.296;2023-12-20T12:38:21;94609.94;;;7.39;100.00
15477;BME280;7840;42.702;23.296;2023-12-20T12:40:50;94607.84;;;7.25;100.00
15477;BME280;7840;42.702;23.296;2023-12-20T12:43:20;94599.59;;;7.50;100.00
15477;BME280;7840;42.702;23.296;2023-12-20T12:45:49;94602.28;;;7.55;100.00
15477;BME280;7840;42.702;23.296;2023-12-20T12:48:16;94596.06;;;7.61;100.00
15477;BME280;7840;42.702;23.296;2023-12-20T12:50:45;94600.06;;;7.63;100.00
15477;BME280;7840;42.702;23.296;2023-12-20T12:53:13;94599.13;;;7.70;100.00
15477;BME280;7840;42.702;23.296;2023-12-20T12:55:40;94583.13;;;7.59;100.00
15477;BME280;7840;42.702;23.296;2023-12-20T12:58:09;94588.53;;;7.53;100.00
15477;BME280;7840;42.702;23.296;2023-12-20T13:00:37;94590.59;;;7.34;100.00
15477;BME280;7840;42.702;23.296;2023-12-20T13:03:05;94587.06;;;7.11;100.00
15477;BME280;7840;42.702;23.296;2023-12-20T13:05:32;94586.97;;;6.78;100.00